sensor_id;sensor_type;location;lat;lon;timestamp;temperature;humidity
11126;DHT22;5617;54.046;10.676;2023-03-14T00:00:25;11.70;99.90
11126;DHT22;5617;54.046;10.676;2023-03-14T00:02:32;11.60;99.90
11126;DHT22;5617;54.046;10.676;2023-03-14T00:04:40;11.50;99.90
11126;DHT22;5617;54.046;10.676;2023-03-14T00:06:48;11.50;99.90
11126;DHT22;5617;54.046;10.676;2023-03-14T00:08:56;11.50;99.90
11126;DHT22;5617;54.046;10.676;2023-03-14T00:11:06;11.50;99.90
11126;DHT22;5617;54.046;10.676;2023-03-14T00:13:14;11.50;99.90
11126;DHT22;5617;54.046;10.676;2023-03-14T00:15:22;11.70;99.90
11126;DHT22;5617;54.046;10.676;2023-03-14T00:17:32;11.50;99.90
11126;DHT22;5617;54.046;10.676;2023-03-14T00:19:40;11.50;99.90
11126;DHT22;5617;54.046;10.676;2023-03-14T00:21:48;11.50;99.90
11126;DHT22;5617;54.046;10.676;2023-03-14T00:23:56;11.50;99.90
11126;DHT22;5617;54.046;10.676;2023-03-14T00:26:09;11.40;99.90
11126;DHT22;5617;54.046;10.676;2023-03-14T00:28:17;11.50;99.90
11126;DHT22;5617;54.046;10.676;2023-03-14T00:30:25;11.50;99.90
11126;DHT22;5617;54.046;10.676;2023-03-14T00:32:34;11.50;99.90
11126;DHT22;5617;54.046;10.676;2023-03-14T00:34:43;11.50;99.90
11126;DHT22;5617;54.046;10.676;2023-03-14T00:36:51;11.50;99.90
11126;DHT22;5617;54.046;10.676;2023-03-14T00:38:59;11.60;99.90
11126;DHT22;5617;54.046;10.676;2023-03-14T00:41:08;11.50;99.90
11126;DHT22;5617;54.046;10.676;2023-03-14T00:43:17;11.50;99.90
11126;DHT22;5617;54.046;10.676;2023-03-14T00:45:25;11.50;99.90
11126;DHT22;5617;54.046;10.676;2023-03-14T00:47:34;11.50;99.90
11126;DHT22;5617;54.046;10.676;2023-03-14T00:49:41;11.50;99.90
11126;DHT22;5617;54.046;10.676;2023-03-14T00:51:50;11.50;99.90
11126;DHT22;5617;54.046;10.676;2023-03-14T00:53:59;11.50;99.90
11126;DHT22;5617;54.046;10.676;2023-03-14T00:56:09;11.50;99.90
11126;DHT22;5617;54.046;10.676;2023-03-14T00:58:18;11.50;99.90
11126;DHT22;5617;54.046;10.676;2023-03-14T01:00:26;11.50;99.90
11126;DHT22;5617;54.046;10.676;2023-03-14T01:02:35;11.50;99.90
11126;DHT22;5617;54.046;10.676;2023-03-14T01:04:42;11.50;99.90
11126;DHT22;5617;54.046;10.676;2023-03-14T01:06:50;11.50;99.90
11126;DHT22;5617;54.046;10.676;2023-03-14T01:08:58;11.40;99.90
11126;DHT22;5617;54.046;10.676;2023-03-14T01:11:08;11.40;99.90
11126;DHT22;5617;54.046;10.676;2023-03-14T01:13:16;11.40;99.90
11126;DHT22;5617;54.046;10.676;2023-03-14T01:15:24;11.60;99.90
11126;DHT22;5617;54.046;10.676;2023-03-14T01:17:31;11.40;99.90
11126;DHT22;5617;54.046;10.676;2023-03-14T01:19:41;11.40;99.90
11126;DHT22;5617;54.046;10.676;2023-03-14T01:21:48;11.50;99.90
11126;DHT22;5617;54.046;10.676;2023-03-14T01:23:57;11.40;99.90
11126;DHT22;5617;54.046;10.676;2023-03-14T01:26:08;11.40;99.90
11126;DHT22;5617;54.046;10.676;2023-03-14T01:28:16;11.30;99.90
11126;DHT22;5617;54.046;10.676;2023-03-14T01:30:24;11.30;99.90
11126;DHT22;5617;54.046;10.676;2023-03-14T01:32:33;11.30;99.90
11126;DHT22;5617;54.046;10.676;2023-03-14T01:34:42;11.30;99.90
11126;DHT22;5617;54.046;10.676;2023-03-14T01:36:50;11.20;99.90
11126;DHT22;5617;54.046;10.676;2023-03-14T01:38:58;11.20;99.90
11126;DHT22;5617;54.046;10.676;2023-03-14T01:41:06;11.20;99.90
11126;DHT22;5617;54.046;10.676;2023-03-14T01:43:16;11.20;99.90
11126;DHT22;5617;54.046;10.676;2023-03-14T01:46:09;11.10;99.90
11126;DHT22;5617;54.046;10.676;2023-03-14T01:48:20;11.10;99.90
11126;DHT22;5617;54.046;10.676;2023-03-14T01:50:29;11.20;99.90
11126;DHT22;5617;54.046;10.676;2023-03-14T01:52:39;11.10;99.90
11126;DHT22;5617;54.046;10.676;2023-03-14T01:54:50;11.10;99.90
11126;DHT22;5617;54.046;10.676;2023-03-14T01:57:04;11.10;99.90
11126;DHT22;5617;54.046;10.676;2023-03-14T01:59:12;11.10;99.90
11126;DHT22;5617;54.046;10.676;2023-03-14T02:01:21;11.10;99.90
11126;DHT22;5617;54.046;10.676;2023-03-14T02:03:36;11.20;99.90
11126;DHT22;5617;54.046;10.676;2023-03-14T02:05:47;11.10;99.90
11126;DHT22;5617;54.046;10.676;2023-03-14T02:07:58;11.10;99.90
11126;DHT22;5617;54.046;10.676;2023-03-14T02:10:07;11.10;99.90
11126;DHT22;5617;54.046;10.676;2023-03-14T02:12:16;11.20;99.90
11126;DHT22;5617;54.046;10.676;2023-03-14T02:14:30;11.20;99.90
11126;DHT22;5617;54.046;10.676;2023-03-14T02:16:37;11.20;99.90
11126;DHT22;5617;54.046;10.676;2023-03-14T02:18:45;11.20;99.90
11126;DHT22;5617;54.046;10.676;2023-03-14T02:20:59;11.20;99.90
11126;DHT22;5617;54.046;10.676;2023-03-14T02:23:08;11.20;99.90
11126;DHT22;5617;54.046;10.676;2023-03-14T02:25:19;11.20;99.90
11126;DHT22;5617;54.046;10.676;2023-03-14T02:27:30;11.30;99.90
11126;DHT22;5617;54.046;10.676;2023-03-14T02:29:43;11.30;99.90
11126;DHT22;5617;54.046;10.676;2023-03-14T02:31:53;11.30;99.90
11126;DHT22;5617;54.046;10.676;2023-03-14T02:34:01;11.30;99.90
11126;DHT22;5617;54.046;10.676;2023-03-14T02:36:11;11.40;99.90
11126;DHT22;5617;54.046;10.676;2023-03-14T02:38:23;11.40;99.90
11126;DHT22;5617;54.046;10.676;2023-03-14T02:40:32;11.40;99.90
11126;DHT22;5617;54.046;10.676;2023-03-14T02:42:41;11.40;99.90
11126;DHT22;5617;54.046;10.676;2023-03-14T02:44:51;11.40;99.90
11126;DHT22;5617;54.046;10.676;2023-03-14T02:46:59;11.40;99.90
11126;DHT22;5617;54.046;10.676;2023-03-14T02:49:08;11.30;99.90
11126;DHT22;5617;54.046;10.676;2023-03-14T02:51:17;11.30;99.90
11126;DHT22;5617;54.046;10.676;2023-03-14T02:53:27;11.30;99.90
11126;DHT22;5617;54.046;10.676;2023-03-14T02:55:35;11.30;99.90
11126;DHT22;5617;54.046;10.676;2023-03-14T02:57:47;11.20;99.90
11126;DHT22;5617;54.046;10.676;2023-03-14T03:00:01;11.20;99.90
11126;DHT22;5617;54.046;10.676;2023-03-14T03:02:11;11.20;99.90
11126;DHT22;5617;54.046;10.676;2023-03-14T03:04:19;11.20;99.90
11126;DHT22;5617;54.046;10.676;2023-03-14T03:06:26;11.20;99.90
11126;DHT22;5617;54.046;10.676;2023-03-14T03:08:34;11.20;99.90
11126;DHT22;5617;54.046;10.676;2023-03-14T03:10:42;11.20;99.90
11126;DHT22;5617;54.046;10.676;2023-03-14T03:12:51;11.20;99.90
11126;DHT22;5617;54.046;10.676;2023-03-14T03:14:58;11.20;99.90
11126;DHT22;5617;54.046;10.676;2023-03-14T03:17:06;11.10;99.90
11126;DHT22;5617;54.046;10.676;2023-03-14T03:19:14;11.20;99.90
11126;DHT22;5617;54.046;10.676;2023-03-14T03:21:24;11.20;99.90
11126;DHT22;5617;54.046;10.676;2023-03-14T03:23:32;11.20;99.90
11126;DHT22;5617;54.046;10.676;2023-03-14T03:25:39;11.20;99.90
11126;DHT22;5617;54.046;10.676;2023-03-14T03:27:47;11.20;99.90
11126;DHT22;5617;54.046;10.676;2023-03-14T03:29:56;11.20;99.90
11126;DHT22;5617;54.046;10.676;2023-03-14T03:32:04;11.20;99.90
11126;DHT22;5617;54.046;10.676;2023-03-14T03:34:13;11.20;99.90
11126;DHT22;5617;54.046;10.676;2023-03-14T03:36:22;11.30;99.90
11126;DHT22;5617;54.046;10.676;2023-03-14T03:38:30;11.30;99.90
11126;DHT22;5617;54.046;10.676;2023-03-14T03:40:37;11.30;99.90
11126;DHT22;5617;54.046;10.676;2023-03-14T03:42:45;11.30;99.90
11126;DHT22;5617;54.046;10.676;2023-03-14T03:44:53;11.30;99.90
11126;DHT22;5617;54.046;10.676;2023-03-14T03:47:02;11.30;99.90
11126;DHT22;5617;54.046;10.676;2023-03-14T03:49:11;11.30;99.90
11126;DHT22;5617;54.046;10.676;2023-03-14T03:51:19;11.30;99.90
11126;DHT22;5617;54.046;10.676;2023-03-14T03:53:26;11.30;99.90
11126;DHT22;5617;54.046;10.676;2023-03-14T03:55:34;11.30;99.90
11126;DHT22;5617;54.046;10.676;2023-03-14T03:57:42;11.30;99.90
11126;DHT22;5617;54.046;10.676;2023-03-14T03:59:49;11.30;99.90
11126;DHT22;5617;54.046;10.676;2023-03-14T04:01:57;11.30;99.90
11126;DHT22;5617;54.046;10.676;2023-03-14T04:04:06;11.30;99.90
11126;DHT22;5617;54.046;10.676;2023-03-14T04:06:14;11.40;99.90
11126;DHT22;5617;54.046;10.676;2023-03-14T04:08:22;11.30;99.90
11126;DHT22;5617;54.046;10.676;2023-03-14T04:10:30;11.40;99.90
11126;DHT22;5617;54.046;10.676;2023-03-14T04:12:37;11.30;99.90
11126;DHT22;5617;54.046;10.676;2023-03-14T04:14:45;11.30;99.90
11126;DHT22;5617;54.046;10.676;2023-03-14T04:16:53;11.30;99.90
11126;DHT22;5617;54.046;10.676;2023-03-14T04:19:00;11.30;99.90
11126;DHT22;5617;54.046;10.676;2023-03-14T04:21:09;11.40;99.90
11126;DHT22;5617;54.046;10.676;2023-03-14T04:23:17;11.30;99.90
11126;DHT22;5617;54.046;10.676;2023-03-14T04:25:25;11.40;99.90
11126;DHT22;5617;54.046;10.676;2023-03-14T04:27:33;11.40;99.90
11126;DHT22;5617;54.046;10.676;2023-03-14T04:29:40;11.40;99.90
11126;DHT22;5617;54.046;10.676;2023-03-14T04:31:48;11.40;99.90
11126;DHT22;5617;54.046;10.676;2023-03-14T04:33:56;11.40;99.90
11126;DHT22;5617;54.046;10.676;2023-03-14T04:36:04;11.40;99.90
11126;DHT22;5617;54.046;10.676;2023-03-14T04:38:14;11.40;99.90
11126;DHT22;5617;54.046;10.676;2023-03-14T04:40:23;11.40;99.90
11126;DHT22;5617;54.046;10.676;2023-03-14T04:42:31;11.50;99.90
11126;DHT22;5617;54.046;10.676;2023-03-14T04:44:39;11.40;99.90
11126;DHT22;5617;54.046;10.676;2023-03-14T04:46:46;11.40;99.90
11126;DHT22;5617;54.046;10.676;2023-03-14T04:48:54;11.40;99.90
11126;DHT22;5617;54.046;10.676;2023-03-14T04:51:06;11.40;99.90
11126;DHT22;5617;54.046;10.676;2023-03-14T04:53:16;11.40;99.90
11126;DHT22;5617;54.046;10.676;2023-03-14T04:55:24;11.30;99.90
11126;DHT22;5617;54.046;10.676;2023-03-14T04:57:31;11.40;99.90
11126;DHT22;5617;54.046;10.676;2023-03-14T04:59:39;11.30;99.90
11126;DHT22;5617;54.046;10.676;2023-03-14T05:01:47;11.40;99.90
11126;DHT22;5617;54.046;10.676;2023-03-14T05:03:56;11.30;99.90
11126;DHT22;5617;54.046;10.676;2023-03-14T05:06:04;11.30;99.90
11126;DHT22;5617;54.046;10.676;2023-03-14T05:08:12;11.30;99.90
11126;DHT22;5617;54.046;10.676;2023-03-14T05:10:21;11.30;99.90
11126;DHT22;5617;54.046;10.676;2023-03-14T05:12:29;11.30;99.90
11126;DHT22;5617;54.046;10.676;2023-03-14T05:14:36;11.30;99.90
11126;DHT22;5617;54.046;10.676;2023-03-14T05:16:45;11.30;99.90
11126;DHT22;5617;54.046;10.676;2023-03-14T05:18:53;11.40;99.90
11126;DHT22;5617;54.046;10.676;2023-03-14T05:21:01;11.40;99.90
11126;DHT22;5617;54.046;10.676;2023-03-14T05:23:09;11.40;99.90
11126;DHT22;5617;54.046;10.676;2023-03-14T05:25:17;11.40;99.90
11126;DHT22;5617;54.046;10.676;2023-03-14T05:27:26;11.30;99.90
11126;DHT22;5617;54.046;10.676;2023-03-14T05:29:34;11.20;99.90
11126;DHT22;5617;54.046;10.676;2023-03-14T05:31:41;11.10;99.90
11126;DHT22;5617;54.046;10.676;2023-03-14T05:33:50;11.00;99.90
11126;DHT22;5617;54.046;10.676;2023-03-14T05:35:57;11.00;99.90
11126;DHT22;5617;54.046;10.676;2023-03-14T05:38:05;11.00;99.90
11126;DHT22;5617;54.046;10.676;2023-03-14T05:40:13;10.70;99.90
11126;DHT22;5617;54.046;10.676;2023-03-14T05:42:20;10.60;99.90
11126;DHT22;5617;54.046;10.676;2023-03-14T05:44:30;10.50;99.90
11126;DHT22;5617;54.046;10.676;2023-03-14T05:46:37;10.40;99.90
11126;DHT22;5617;54.046;10.676;2023-03-14T05:48:45;10.30;99.90
11126;DHT22;5617;54.046;10.676;2023-03-14T05:50:55;10.30;99.90
11126;DHT22;5617;54.046;10.676;2023-03-14T05:53:03;10.20;99.90
11126;DHT22;5617;54.046;10.676;2023-03-14T05:55:11;10.10;99.90
11126;DHT22;5617;54.046;10.676;2023-03-14T05:57:18;10.10;99.90
11126;DHT22;5617;54.046;10.676;2023-03-14T05:59:26;10.10;99.90
11126;DHT22;5617;54.046;10.676;2023-03-14T06:01:35;10.00;99.90
11126;DHT22;5617;54.046;10.676;2023-03-14T06:03:43;10.00;99.90
11126;DHT22;5617;54.046;10.676;2023-03-14T06:05:51;10.00;99.90
11126;DHT22;5617;54.046;10.676;2023-03-14T06:07:58;10.00;99.90
11126;DHT22;5617;54.046;10.676;2023-03-14T06:10:07;10.00;99.90
11126;DHT22;5617;54.046;10.676;2023-03-14T06:12:14;10.00;99.90
11126;DHT22;5617;54.046;10.676;2023-03-14T06:14:23;10.00;99.90
11126;DHT22;5617;54.046;10.676;2023-03-14T06:16:31;10.00;99.90
11126;DHT22;5617;54.046;10.676;2023-03-14T06:18:40;9.90;99.90
11126;DHT22;5617;54.046;10.676;2023-03-14T06:20:48;10.10;99.90
11126;DHT22;5617;54.046;10.676;2023-03-14T06:22:55;9.90;99.90
11126;DHT22;5617;54.046;10.676;2023-03-14T06:25:04;9.90;99.90
11126;DHT22;5617;54.046;10.676;2023-03-14T06:27:11;9.90;99.90
11126;DHT22;5617;54.046;10.676;2023-03-14T06:29:19;9.90;99.90
11126;DHT22;5617;54.046;10.676;2023-03-14T06:31:27;9.90;99.90
11126;DHT22;5617;54.046;10.676;2023-03-14T06:33:39;9.90;99.90
11126;DHT22;5617;54.046;10.676;2023-03-14T06:35:48;9.90;99.90
11126;DHT22;5617;54.046;10.676;2023-03-14T06:37:56;9.90;99.90
11126;DHT22;5617;54.046;10.676;2023-03-14T06:40:06;9.90;99.90
11126;DHT22;5617;54.046;10.676;2023-03-14T06:42:14;9.90;99.90
11126;DHT22;5617;54.046;10.676;2023-03-14T06:44:22;10.00;99.90
11126;DHT22;5617;54.046;10.676;2023-03-14T06:46:32;10.00;99.90
11126;DHT22;5617;54.046;10.676;2023-03-14T06:48:40;10.00;99.90
11126;DHT22;5617;54.046;10.676;2023-03-14T06:50:49;10.20;99.90
11126;DHT22;5617;54.046;10.676;2023-03-14T06:52:59;10.10;99.90
11126;DHT22;5617;54.046;10.676;2023-03-14T06:55:07;10.10;99.90
11126;DHT22;5617;54.046;10.676;2023-03-14T06:57:15;10.10;99.90
11126;DHT22;5617;54.046;10.676;2023-03-14T06:59:23;10.20;99.90
11126;DHT22;5617;54.046;10.676;2023-03-14T07:01:31;10.20;99.90
11126;DHT22;5617;54.046;10.676;2023-03-14T07:03:41;10.20;99.90
11126;DHT22;5617;54.046;10.676;2023-03-14T07:05:51;10.20;99.90
11126;DHT22;5617;54.046;10.676;2023-03-14T07:07:58;10.20;99.90
11126;DHT22;5617;54.046;10.676;2023-03-14T07:10:09;10.30;99.90
11126;DHT22;5617;54.046;10.676;2023-03-14T07:12:16;10.20;99.90
11126;DHT22;5617;54.046;10.676;2023-03-14T07:14:24;10.30;99.90
11126;DHT22;5617;54.046;10.676;2023-03-14T07:16:32;10.30;99.90
11126;DHT22;5617;54.046;10.676;2023-03-14T07:18:41;10.30;99.90
11126;DHT22;5617;54.046;10.676;2023-03-14T07:20:50;10.40;99.90
11126;DHT22;5617;54.046;10.676;2023-03-14T07:22:58;10.40;99.90
11126;DHT22;5617;54.046;10.676;2023-03-14T07:25:07;10.50;99.90
11126;DHT22;5617;54.046;10.676;2023-03-14T07:27:16;10.60;99.90
11126;DHT22;5617;54.046;10.676;2023-03-14T07:29:26;10.60;99.90
11126;DHT22;5617;54.046;10.676;2023-03-14T07:31:34;10.60;99.90
11126;DHT22;5617;54.046;10.676;2023-03-14T07:33:42;10.60;99.90
11126;DHT22;5617;54.046;10.676;2023-03-14T07:35:51;10.60;99.90
11126;DHT22;5617;54.046;10.676;2023-03-14T07:37:59;10.60;99.90
11126;DHT22;5617;54.046;10.676;2023-03-14T07:40:07;10.70;99.90
11126;DHT22;5617;54.046;10.676;2023-03-14T07:42:16;10.80;99.90
11126;DHT22;5617;54.046;10.676;2023-03-14T07:44:24;10.80;99.90
11126;DHT22;5617;54.046;10.676;2023-03-14T07:46:32;10.90;99.90
11126;DHT22;5617;54.046;10.676;2023-03-14T07:48:40;10.90;99.90
11126;DHT22;5617;54.046;10.676;2023-03-14T07:50:48;10.90;99.90
11126;DHT22;5617;54.046;10.676;2023-03-14T07:52:57;11.00;99.90
11126;DHT22;5617;54.046;10.676;2023-03-14T07:55:06;11.00;99.90
11126;DHT22;5617;54.046;10.676;2023-03-14T07:57:14;11.00;99.90
11126;DHT22;5617;54.046;10.676;2023-03-14T07:59:21;11.00;99.90
11126;DHT22;5617;54.046;10.676;2023-03-14T08:01:30;11.10;99.90
11126;DHT22;5617;54.046;10.676;2023-03-14T08:03:37;11.10;99.90
11126;DHT22;5617;54.046;10.676;2023-03-14T08:05:47;11.20;99.90
11126;DHT22;5617;54.046;10.676;2023-03-14T08:07:55;11.20;99.90
11126;DHT22;5617;54.046;10.676;2023-03-14T08:10:06;11.20;99.90
11126;DHT22;5617;54.046;10.676;2023-03-14T08:12:14;11.10;99.90
11126;DHT22;5617;54.046;10.676;2023-03-14T08:14:22;11.00;99.90
11126;DHT22;5617;54.046;10.676;2023-03-14T08:16:30;11.00;99.90
11126;DHT22;5617;54.046;10.676;2023-03-14T08:18:38;10.90;99.90
11126;DHT22;5617;54.046;10.676;2023-03-14T08:20:45;10.90;99.90
11126;DHT22;5617;54.046;10.676;2023-03-14T08:22:55;10.70;99.90
11126;DHT22;5617;54.046;10.676;2023-03-14T08:25:06;10.70;99.90
11126;DHT22;5617;54.046;10.676;2023-03-14T08:27:13;10.60;99.90
11126;DHT22;5617;54.046;10.676;2023-03-14T08:29:21;10.60;99.90
11126;DHT22;5617;54.046;10.676;2023-03-14T08:31:29;10.70;99.90
11126;DHT22;5617;54.046;10.676;2023-03-14T08:33:37;10.60;99.90
11126;DHT22;5617;54.046;10.676;2023-03-14T08:35:45;10.60;99.90
11126;DHT22;5617;54.046;10.676;2023-03-14T08:37:52;10.70;99.90
11126;DHT22;5617;54.046;10.676;2023-03-14T08:40:00;10.70;99.90
11126;DHT22;5617;54.046;10.676;2023-03-14T08:42:13;10.80;99.90
11126;DHT22;5617;54.046;10.676;2023-03-14T08:44:21;10.70;99.90
11126;DHT22;5617;54.046;10.676;2023-03-14T08:46:29;10.70;99.90
11126;DHT22;5617;54.046;10.676;2023-03-14T08:48:37;10.80;99.90
11126;DHT22;5617;54.046;10.676;2023-03-14T08:50:45;10.80;99.90
11126;DHT22;5617;54.046;10.676;2023-03-14T08:52:53;10.80;99.90
11126;DHT22;5617;54.046;10.676;2023-03-14T08:55:00;10.90;99.90
11126;DHT22;5617;54.046;10.676;2023-03-14T08:57:08;10.90;99.90
11126;DHT22;5617;54.046;10.676;2023-03-14T08:59:17;10.90;99.90
11126;DHT22;5617;54.046;10.676;2023-03-14T09:01:25;10.80;99.90
11126;DHT22;5617;54.046;10.676;2023-03-14T09:03:33;10.80;99.90
11126;DHT22;5617;54.046;10.676;2023-03-14T09:05:41;10.80;99.90
11126;DHT22;5617;54.046;10.676;2023-03-14T09:07:48;10.80;99.90
11126;DHT22;5617;54.046;10.676;2023-03-14T09:09:56;10.70;99.90
11126;DHT22;5617;54.046;10.676;2023-03-14T09:12:04;10.60;99.90
11126;DHT22;5617;54.046;10.676;2023-03-14T09:14:13;10.60;99.90
11126;DHT22;5617;54.046;10.676;2023-03-14T09:16:22;10.50;99.90
11126;DHT22;5617;54.046;10.676;2023-03-14T09:18:30;10.50;99.90
11126;DHT22;5617;54.046;10.676;2023-03-14T09:20:39;10.40;99.90
11126;DHT22;5617;54.046;10.676;2023-03-14T09:22:47;10.40;99.90
11126;DHT22;5617;54.046;10.676;2023-03-14T09:24:55;10.40;99.90
11126;DHT22;5617;54.046;10.676;2023-03-14T09:27:03;10.40;99.90
11126;DHT22;5617;54.046;10.676;2023-03-14T09:29:10;10.40;99.90
11126;DHT22;5617;54.046;10.676;2023-03-14T09:31:22;10.50;99.90
11126;DHT22;5617;54.046;10.676;2023-03-14T09:33:30;10.50;99.90
11126;DHT22;5617;54.046;10.676;2023-03-14T09:35:38;10.50;99.90
11126;DHT22;5617;54.046;10.676;2023-03-14T09:37:45;10.60;99.90
11126;DHT22;5617;54.046;10.676;2023-03-14T09:39:53;10.60;99.90
11126;DHT22;5617;54.046;10.676;2023-03-14T09:42:03;10.60;99.90
11126;DHT22;5617;54.046;10.676;2023-03-14T09:44:15;10.60;99.90
11126;DHT22;5617;54.046;10.676;2023-03-14T09:46:25;10.50;99.90
11126;DHT22;5617;54.046;10.676;2023-03-14T09:48:34;10.50;99.90
11126;DHT22;5617;54.046;10.676;2023-03-14T09:50:44;10.60;99.90
11126;DHT22;5617;54.046;10.676;2023-03-14T09:52:56;10.70;99.90
11126;DHT22;5617;54.046;10.676;2023-03-14T09:55:05;10.80;99.90
11126;DHT22;5617;54.046;10.676;2023-03-14T09:57:16;10.90;99.90
11126;DHT22;5617;54.046;10.676;2023-03-14T09:59:25;10.90;99.90
11126;DHT22;5617;54.046;10.676;2023-03-14T10:01:34;10.90;99.90
11126;DHT22;5617;54.046;10.676;2023-03-14T10:03:45;10.90;99.90
11126;DHT22;5617;54.046;10.676;2023-03-14T10:05:53;10.90;99.90
11126;DHT22;5617;54.046;10.676;2023-03-14T10:08:02;10.80;99.90
11126;DHT22;5617;54.046;10.676;2023-03-14T10:10:17;10.70;99.90
11126;DHT22;5617;54.046;10.676;2023-03-14T10:12:32;9.90;99.90
11126;DHT22;5617;54.046;10.676;2023-03-14T10:14:46;9.20;99.90
11126;DHT22;5617;54.046;10.676;2023-03-14T10:17:05;8.60;99.90
11126;DHT22;5617;54.046;10.676;2023-03-14T10:19:15;8.10;99.90
11126;DHT22;5617;54.046;10.676;2023-03-14T10:21:27;7.70;99.90
11126;DHT22;5617;54.046;10.676;2023-03-14T10:23:35;7.30;99.90
11126;DHT22;5617;54.046;10.676;2023-03-14T10:25:46;7.00;99.90
11126;DHT22;5617;54.046;10.676;2023-03-14T10:28:22;6.80;99.90
11126;DHT22;5617;54.046;10.676;2023-03-14T10:30:39;6.70;99.90
11126;DHT22;5617;54.046;10.676;2023-03-14T10:32:52;6.50;99.90
11126;DHT22;5617;54.046;10.676;2023-03-14T10:35:20;6.40;99.90
11126;DHT22;5617;54.046;10.676;2023-03-14T10:37:28;6.20;99.90
11126;DHT22;5617;54.046;10.676;2023-03-14T10:39:41;6.10;99.90
11126;DHT22;5617;54.046;10.676;2023-03-14T10:41:52;6.00;99.90
11126;DHT22;5617;54.046;10.676;2023-03-14T10:44:02;6.00;99.90
11126;DHT22;5617;54.046;10.676;2023-03-14T10:46:14;5.70;99.90
11126;DHT22;5617;54.046;10.676;2023-03-14T10:48:29;5.70;99.90
11126;DHT22;5617;54.046;10.676;2023-03-14T10:50:37;5.80;99.90
11126;DHT22;5617;54.046;10.676;2023-03-14T10:52:53;5.50;99.90
11126;DHT22;5617;54.046;10.676;2023-03-14T10:55:03;5.40;99.90
11126;DHT22;5617;54.046;10.676;2023-03-14T10:57:19;5.30;99.90
11126;DHT22;5617;54.046;10.676;2023-03-14T10:59:32;5.20;99.90
11126;DHT22;5617;54.046;10.676;2023-03-14T11:01:46;5.20;99.90
11126;DHT22;5617;54.046;10.676;2023-03-14T11:04:00;5.20;99.90
11126;DHT22;5617;54.046;10.676;2023-03-14T11:06:12;5.20;99.90
11126;DHT22;5617;54.046;10.676;2023-03-14T11:08:27;5.20;99.90
11126;DHT22;5617;54.046;10.676;2023-03-14T11:10:36;5.20;99.90
11126;DHT22;5617;54.046;10.676;2023-03-14T11:12:55;5.20;99.90
11126;DHT22;5617;54.046;10.676;2023-03-14T11:15:17;5.20;99.90
11126;DHT22;5617;54.046;10.676;2023-03-14T11:17:33;5.20;99.90
11126;DHT22;5617;54.046;10.676;2023-03-14T11:20:03;5.20;99.90
11126;DHT22;5617;54.046;10.676;2023-03-14T11:22:21;5.20;99.90
11126;DHT22;5617;54.046;10.676;2023-03-14T11:24:44;5.30;99.90
11126;DHT22;5617;54.046;10.676;2023-03-14T11:26:59;5.20;99.90
11126;DHT22;5617;54.046;10.676;2023-03-14T11:29:20;5.30;99.90
11126;DHT22;5617;54.046;10.676;2023-03-14T11:31:29;5.30;99.90
11126;DHT22;5617;54.046;10.676;2023-03-14T11:33:38;5.40;99.90
11126;DHT22;5617;54.046;10.676;2023-03-14T11:35:54;5.40;99.90
11126;DHT22;5617;54.046;10.676;2023-03-14T11:38:12;5.40;99.90
11126;DHT22;5617;54.046;10.676;2023-03-14T11:40:22;5.50;99.90
11126;DHT22;5617;54.046;10.676;2023-03-14T11:42:32;5.50;99.90
11126;DHT22;5617;54.046;10.676;2023-03-14T11:44:43;5.50;99.90
11126;DHT22;5617;54.046;10.676;2023-03-14T11:46:56;5.80;99.90
11126;DHT22;5617;54.046;10.676;2023-03-14T11:49:13;5.70;99.90
11126;DHT22;5617;54.046;10.676;2023-03-14T11:51:29;5.90;99.90
11126;DHT22;5617;54.046;10.676;2023-03-14T11:53:48;5.80;99.90
11126;DHT22;5617;54.046;10.676;2023-03-14T11:55:57;5.90;99.90
11126;DHT22;5617;54.046;10.676;2023-03-14T11:58:13;6.00;99.90
11126;DHT22;5617;54.046;10.676;2023-03-14T12:00:25;6.00;99.90
11126;DHT22;5617;54.046;10.676;2023-03-14T12:02:37;6.10;99.90
11126;DHT22;5617;54.046;10.676;2023-03-14T12:04:54;6.10;99.90
11126;DHT22;5617;54.046;10.676;2023-03-14T12:07:12;6.10;99.90
11126;DHT22;5617;54.046;10.676;2023-03-14T12:09:22;6.20;99.90
11126;DHT22;5617;54.046;10.676;2023-03-14T12:11:34;6.20;99.90
11126;DHT22;5617;54.046;10.676;2023-03-14T12:13:47;6.30;99.90
11126;DHT22;5617;54.046;10.676;2023-03-14T12:15:57;6.30;99.90
11126;DHT22;5617;54.046;10.676;2023-03-14T12:18:18;6.40;99.90
11126;DHT22;5617;54.046;10.676;2023-03-14T12:20:27;6.50;99.90
11126;DHT22;5617;54.046;10.676;2023-03-14T12:22:42;6.50;99.90
11126;DHT22;5617;54.046;10.676;2023-03-14T12:24:54;6.60;99.90
11126;DHT22;5617;54.046;10.676;2023-03-14T12:27:04;6.60;99.90
11126;DHT22;5617;54.046;10.676;2023-03-14T12:29:16;6.60;99.90
11126;DHT22;5617;54.046;10.676;2023-03-14T12:31:40;6.70;99.90
11126;DHT22;5617;54.046;10.676;2023-03-14T12:34:01;6.60;99.90
11126;DHT22;5617;54.046;10.676;2023-03-14T12:39:13;6.80;99.90
11126;DHT22;5617;54.046;10.676;2023-03-14T12:41:23;6.90;99.90
11126;DHT22;5617;54.046;10.676;2023-03-14T12:43:33;7.20;99.90
11126;DHT22;5617;54.046;10.676;2023-03-14T12:45:42;7.20;99.90
11126;DHT22;5617;54.046;10.676;2023-03-14T12:48:10;7.30;99.90
11126;DHT22;5617;54.046;10.676;2023-03-14T12:50:23;7.40;99.90
11126;DHT22;5617;54.046;10.676;2023-03-14T12:55:03;7.30;99.90
11126;DHT22;5617;54.046;10.676;2023-03-14T12:57:23;7.30;99.90
11126;DHT22;5617;54.046;10.676;2023-03-14T12:59:35;7.30;99.90
11126;DHT22;5617;54.046;10.676;2023-03-14T13:01:48;7.20;99.90
11126;DHT22;5617;54.046;10.676;2023-03-14T13:04:07;7.20;99.90
11126;DHT22;5617;54.046;10.676;2023-03-14T13:06:51;7.10;99.90
11126;DHT22;5617;54.046;10.676;2023-03-14T13:09:45;7.10;99.90
11126;DHT22;5617;54.046;10.676;2023-03-14T13:12:01;7.10;99.90
11126;DHT22;5617;54.046;10.676;2023-03-14T13:14:10;7.10;99.90
11126;DHT22;5617;54.046;10.676;2023-03-14T13:16:19;7.00;99.90
11126;DHT22;5617;54.046;10.676;2023-03-14T13:18:33;7.00;99.90
11126;DHT22;5617;54.046;10.676;2023-03-14T13:20:45;7.00;99.90
11126;DHT22;5617;54.046;10.676;2023-03-14T13:22:53;6.90;99.90
11126;DHT22;5617;54.046;10.676;2023-03-14T13:25:03;6.80;99.90
11126;DHT22;5617;54.046;10.676;2023-03-14T13:27:17;7.00;99.90
11126;DHT22;5617;54.046;10.676;2023-03-14T13:29:27;6.80;99.90
11126;DHT22;5617;54.046;10.676;2023-03-14T13:31:35;6.70;99.90
11126;DHT22;5617;54.046;10.676;2023-03-14T13:33:43;6.60;99.90
11126;DHT22;5617;54.046;10.676;2023-03-14T13:35:55;6.50;99.90
11126;DHT22;5617;54.046;10.676;2023-03-14T13:38:03;6.50;99.90
11126;DHT22;5617;54.046;10.676;2023-03-14T13:40:20;6.50;99.90
11126;DHT22;5617;54.046;10.676;2023-03-14T13:42:30;6.40;99.90
11126;DHT22;5617;54.046;10.676;2023-03-14T13:44:39;6.40;99.90
11126;DHT22;5617;54.046;10.676;2023-03-14T13:46:47;6.40;99.90
11126;DHT22;5617;54.046;10.676;2023-03-14T13:48:58;6.50;99.90
11126;DHT22;5617;54.046;10.676;2023-03-14T13:51:11;6.50;99.90